Time;durP1;ratioP1;P1;durP2;ratioP2;P2;SDS_P1;SDS_P2;PMS_P1;PMS_P2;Temp;Humidity;BMP_temperature;BMP_pressure;BME280_temperature;BME280_humidity;BME280_pressure;Samples;Min_cycle;Max_cycle;Signal;HPM_P1;HPM_P2
2023/07/09 09:55:15;;;;;;;585.92;526.40;;;;;;;;;;5038846;27;20968;-56
2023/07/09 09:57:47;;;;;;;671.95;559.00;;;;;;;;;;4999242;28;20030;-56
2023/07/09 10:00:15;;;;;;;510.30;463.80;;;;;;;;;;4998360;28;20385;-55
2023/07/09 10:02:45;;;;;;;601.65;539.72;;;;;;;;;;5000483;28;20118;-57
2023/07/09 10:05:25;;;;;;;543.60;347.35;;;;;;;;;;4997808;28;20024;-57
2023/07/09 10:08:12;;;;;;;506.58;454.50;;;;;;;;;;4998543;28;20415;-57
2023/07/09 10:10:39;;;;;;;569.47;504.80;;;;;;;;;;5000767;28;20038;-57
2023/07/09 10:13:04;;;;;;;660.25;548.30;;;;;;;;;;4998959;28;20423;-58
2023/07/09 10:15:50;;;;;;;673.27;521.83;;;;;;;;;;5001014;28;20520;-56
2023/07/09 10:18:18;;;;;;;621.58;482.98;;;;;;;;;;4996270;28;20025;-56
2023/07/09 10:20:50;;;;;;;629.33;525.70;;;;;;;;;;4998989;28;20045;-55
2023/07/09 10:23:18;;;;;;;607.42;418.83;;;;;;;;;;4999321;28;20036;-56
2023/07/09 10:26:07;;;;;;;643.97;495.92;;;;;;;;;;5001248;28;20462;-56
2023/07/09 10:28:46;;;;;;;646.00;510.80;;;;;;;;;;4999552;28;20816;-54
2023/07/09 10:31:30;;;;;;;632.85;441.05;;;;;;;;;;4999229;28;21306;-55
2023/07/09 10:34:13;;;;;;;292.80;144.13;;;;;;;;;;4999241;28;20024;-56
2023/07/09 10:36:47;;;;;;;407.33;257.38;;;;;;;;;;4998506;28;20062;-56
2023/07/09 10:39:15;;;;;;;184.88;99.22;;;;;;;;;;4998088;28;20168;-54
2023/07/09 10:41:42;;;;;;;546.70;490.30;;;;;;;;;;4997098;28;20034;-57
2023/07/09 10:44:15;;;;;;;345.83;212.77;;;;;;;;;;4998707;28;20208;-56
2023/07/09 10:46:42;;;;;;;404.38;330.15;;;;;;;;;;4997375;28;20037;-57
2023/07/09 10:49:11;;;;;;;715.58;612.20;;;;;;;;;;5000008;28;20117;-55
2023/07/09 10:51:44;;;;;;;516.72;442.08;;;;;;;;;;4998694;28;20081;-54
2023/07/09 10:54:29;;;;;;;678.20;560.40;;;;;;;;;;4996451;28;20570;-56
2023/07/09 10:56:59;;;;;;;626.97;541.40;;;;;;;;;;4995839;28;20101;-58
2023/07/09 10:59:28;;;;;;;622.35;521.47;;;;;;;;;;4999231;28;20149;-57
2023/07/09 11:01:58;;;;;;;763.88;576.65;;;;;;;;;;4995490;28;20026;-55
2023/07/09 11:04:26;;;;;;;164.63;73.80;;;;;;;;;;4998772;28;20432;-55
2023/07/09 11:06:58;;;;;;;676.95;494.60;;;;;;;;;;4986114;28;20126;-57
2023/07/09 11:09:30;;;;;;;629.25;510.40;;;;;;;;;;4986763;28;20526;-54
2023/07/09 11:11:59;;;;;;;644.10;569.60;;;;;;;;;;4983789;28;20677;-56
2023/07/09 11:14:31;;;;;;;617.13;512.30;;;;;;;;;;4985319;28;20022;-56
2023/07/09 11:16:57;;;;;;;603.28;437.15;;;;;;;;;;4982248;28;20094;-55
2023/07/09 11:19:24;;;;;;;681.42;601.47;;;;;;;;;;4985668;28;20026;-57
2023/07/09 11:22:05;;;;;;;606.70;520.63;;;;;;;;;;4983933;28;20411;-54
2023/07/09 11:24:32;;;;;;;642.80;460.77;;;;;;;;;;4986547;28;20098;-58
2023/07/09 11:27:00;;;;;;;270.88;150.93;;;;;;;;;;4981356;28;20041;-57
2023/07/09 11:29:25;;;;;;;621.20;475.02;;;;;;;;;;4983596;28;20396;-58
2023/07/09 11:31:50;;;;;;;516.58;463.40;;;;;;;;;;4984496;28;20555;-55
2023/07/09 11:34:17;;;;;;;646.97;516.47;;;;;;;;;;4984034;28;20141;-55
2023/07/09 11:36:50;;;;;;;378.42;247.75;;;;;;;;;;4983895;28;20347;-55
2023/07/09 11:39:41;;;;;;;422.08;354.88;;;;;;;;;;4982156;28;20480;-53
2023/07/09 11:42:27;;;;;;;715.53;407.88;;;;;;;;;;4983830;28;20026;-56
2023/07/09 11:44:57;;;;;;;614.85;549.60;;;;;;;;;;4984222;28;20029;-55
2023/07/09 11:47:25;;;;;;;418.35;349.80;;;;;;;;;;4984222;28;20039;-54
2023/07/09 11:49:53;;;;;;;723.42;537.90;;;;;;;;;;4986436;28;20023;-53
2023/07/09 11:52:21;;;;;;;546.70;453.42;;;;;;;;;;4983077;28;20065;-54
2023/07/09 11:54:47;;;;;;;496.27;403.27;;;;;;;;;;4991560;28;20829;-56
2023/07/09 11:57:13;;;;;;;561.37;489.80;;;;;;;;;;4983024;28;20042;-57
2023/07/09 11:59:40;;;;;;;581.92;512.65;;;;;;;;;;4985030;28;20054;-54
2023/07/09 12:02:09;;;;;;;564.95;399.95;;;;;;;;;;4982296;28;20511;-55
2023/07/09 12:04:35;;;;;;;479.67;356.23;;;;;;;;;;4983912;28;20050;-56
2023/07/09 12:07:01;;;;;;;709.90;472.77;;;;;;;;;;4982556;28;20122;-58
2023/07/09 12:09:31;;;;;;;361.48;205.73;;;;;;;;;;4987685;28;20105;-56
2023/07/09 12:11:56;;;;;;;581.58;361.33;;;;;;;;;;4984271;28;20057;-55
2023/07/09 12:14:22;;;;;;;681.97;596.87;;;;;;;;;;4982541;28;20031;-53
2023/07/09 12:16:49;;;;;;;531.47;475.40;;;;;;;;;;4984019;28;20089;-55
2023/07/09 12:19:15;;;;;;;550.63;494.35;;;;;;;;;;4982948;28;20483;-55
2023/07/09 12:21:44;;;;;;;289.73;221.10;;;;;;;;;;4984012;28;20579;-58
2023/07/09 12:24:15;;;;;;;535.08;455.25;;;;;;;;;;4982594;28;20061;-57
2023/07/09 12:26:42;;;;;;;470.35;383.25;;;;;;;;;;4983187;28;20034;-57
2023/07/09 12:29:08;;;;;;;475.83;422.63;;;;;;;;;;4982673;28;20399;-55
2023/07/09 12:31:33;;;;;;;599.25;537.33;;;;;;;;;;4983258;28;20124;-55
2023/07/09 12:33:59;;;;;;;608.47;516.83;;;;;;;;;;4981532;28;20113;-55
2023/07/09 12:36:27;;;;;;;446.08;400.40;;;;;;;;;;4981819;28;20061;-56
2023/07/09 12:39:12;;;;;;;627.17;547.35;;;;;;;;;;4981499;28;20018;-57
2023/07/09 12:41:38;;;;;;;750.97;426.98;;;;;;;;;;4982326;28;20100;-57
2023/07/09 12:44:03;;;;;;;688.83;609.77;;;;;;;;;;4982122;28;20026;-57
2023/07/09 12:46:29;;;;;;;687.80;612.33;;;;;;;;;;4982593;28;20026;-56
2023/07/09 12:48:54;;;;;;;482.15;430.23;;;;;;;;;;4981997;28;20133;-58
2023/07/09 12:51:28;;;;;;;391.08;349.52;;;;;;;;;;4980628;28;20038;-57
2023/07/09 12:54:09;;;;;;;474.67;426.67;;;;;;;;;;4981908;28;20052;-56
2023/07/09 12:56:35;;;;;;;435.05;378.70;;;;;;;;;;4980485;28;20124;-53
2023/07/09 12:59:02;;;;;;;616.55;550.53;;;;;;;;;;4981556;28;20029;-51
2023/07/09 13:01:33;;;;;;;487.35;434.88;;;;;;;;;;4973816;28;20074;-56
2023/07/09 13:04:00;;;;;;;485.92;435.55;;;;;;;;;;4964232;28;20026;-56
2023/07/09 13:06:30;;;;;;;386.92;345.58;;;;;;;;;;4973625;28;20038;-56
2023/07/09 13:08:57;;;;;;;515.45;462.88;;;;;;;;;;4981394;28;20060;-59
2023/07/09 13:11:22;;;;;;;456.60;398.95;;;;;;;;;;4979229;28;20083;-54
2023/07/09 13:14:02;;;;;;;503.17;453.63;;;;;;;;;;4984460;28;20014;-58
2023/07/09 13:16:28;;;;;;;407.10;362.97;;;;;;;;;;4981220;28;20034;-57
2023/07/09 13:18:53;;;;;;;353.10;312.08;;;;;;;;;;4984269;28;20096;-56
2023/07/09 13:21:19;;;;;;;640.28;570.67;;;;;;;;;;4980377;28;20207;-57
2023/07/09 13:23:46;;;;;;;495.17;445.95;;;;;;;;;;4982238;28;20559;-57
2023/07/09 13:26:11;;;;;;;415.67;345.10;;;;;;;;;;4983411;28;20031;-55
2023/07/09 13:28:36;;;;;;;366.83;327.00;;;;;;;;;;4984256;28;20052;-57
2023/07/09 13:31:05;;;;;;;331.60;277.77;;;;;;;;;;4980619;28;20034;-53
2023/07/09 13:33:30;;;;;;;440.67;397.75;;;;;;;;;;4983285;28;20034;-56
2023/07/09 13:35:55;;;;;;;536.90;479.43;;;;;;;;;;4984180;28;20366;-57
2023/07/09 13:38:22;;;;;;;462.80;367.90;;;;;;;;;;4994819;28;20506;-56
2023/07/09 13:40:49;;;;;;;664.13;487.50;;;;;;;;;;4983315;28;20412;-56
2023/07/09 13:43:15;;;;;;;364.48;303.27;;;;;;;;;;4982690;28;20026;-55
2023/07/09 13:45:40;;;;;;;447.42;399.98;;;;;;;;;;4983090;28;20145;-56
2023/07/09 13:48:14;;;;;;;627.50;564.33;;;;;;;;;;4981669;28;20023;-56
2023/07/09 13:50:39;;;;;;;436.48;389.73;;;;;;;;;;4982914;28;20308;-57
2023/07/09 13:53:09;;;;;;;641.10;459.92;;;;;;;;;;4980796;28;20148;-58
2023/07/09 13:55:34;;;;;;;498.05;443.58;;;;;;;;;;4982753;28;20069;-57
2023/07/09 13:57:59;;;;;;;442.27;365.30;;;;;;;;;;4983296;28;20491;-57
2023/07/09 14:00:25;;;;;;;356.87;294.33;;;;;;;;;;4982747;28;20369;-58
2023/07/09 14:02:50;;;;;;;478.90;381.10;;;;;;;;;;4983113;28;20301;-57
2023/07/09 14:05:16;;;;;;;465.30;405.70;;;;;;;;;;4979861;28;20040;-57
2023/07/09 14:07:42;;;;;;;352.67;307.30;;;;;;;;;;4980602;28;20065;-56
2023/07/09 14:10:11;;;;;;;377.65;290.00;;;;;;;;;;4979026;28;20633;-58
2023/07/09 14:12:38;;;;;;;509.13;403.77;;;;;;;;;;4982313;28;20140;-56
2023/07/09 14:15:11;;;;;;;378.98;318.77;;;;;;;;;;4981537;28;20117;-56
2023/07/09 14:17:36;;;;;;;429.15;377.92;;;;;;;;;;4981681;28;20765;-56
2023/07/09 14:20:02;;;;;;;407.13;303.33;;;;;;;;;;4982644;28;20031;-56
2023/07/09 14:22:27;;;;;;;336.50;287.95;;;;;;;;;;4980989;28;20491;-55
2023/07/09 14:24:52;;;;;;;390.23;349.17;;;;;;;;;;4982556;28;20529;-56
2023/07/09 14:27:18;;;;;;;420.03;335.83;;;;;;;;;;4981167;28;20038;-57
2023/07/09 14:29:43;;;;;;;380.77;308.92;;;;;;;;;;4983598;28;20283;-56
2023/07/09 14:32:27;;;;;;;365.20;295.33;;;;;;;;;;4978908;28;20066;-56
2023/07/09 14:34:52;;;;;;;334.27;298.45;;;;;;;;;;4981763;28;20117;-57
2023/07/09 14:37:17;;;;;;;429.97;316.87;;;;;;;;;;4980410;28;20034;-56
2023/07/09 14:39:44;;;;;;;363.83;301.33;;;;;;;;;;4982031;28;20110;-56
2023/07/09 14:42:13;;;;;;;375.73;313.25;;;;;;;;;;4983936;28;20034;-59
2023/07/09 14:44:39;;;;;;;335.02;264.65;;;;;;;;;;4985085;28;20483;-56
2023/07/09 14:47:15;;;;;;;515.78;459.98;;;;;;;;;;4984967;28;20665;-55
2023/07/09 14:49:40;;;;;;;365.33;292.77;;;;;;;;;;4986687;28;20033;-59
2023/07/09 14:52:11;;;;;;;465.70;381.03;;;;;;;;;;4987884;28;20041;-58
2023/07/09 14:54:36;;;;;;;446.80;364.65;;;;;;;;;;4985707;28;20730;-58
2023/07/09 14:57:03;;;;;;;467.93;369.97;;;;;;;;;;4985272;28;20030;-58
2023/07/09 14:59:28;;;;;;;378.55;298.48;;;;;;;;;;4983756;28;20018;-54
2023/07/09 15:01:54;;;;;;;532.47;342.03;;;;;;;;;;4984354;28;20036;-55
2023/07/09 15:04:28;;;;;;;464.42;362.77;;;;;;;;;;4984656;28;20018;-56
2023/07/09 15:06:54;;;;;;;515.88;398.23;;;;;;;;;;4984760;28;20327;-59
2023/07/09 15:09:20;;;;;;;360.42;273.30;;;;;;;;;;4984270;28;20405;-57
2023/07/09 15:11:50;;;;;;;483.40;380.85;;;;;;;;;;4984648;28;20030;-56
2023/07/09 15:14:15;;;;;;;435.55;329.75;;;;;;;;;;4983925;28;20029;-57
2023/07/09 15:16:41;;;;;;;435.40;333.20;;;;;;;;;;4985339;28;20027;-57
2023/07/09 15:19:13;;;;;;;461.73;403.33;;;;;;;;;;4986013;28;20025;-55
2023/07/09 15:21:39;;;;;;;317.58;242.10;;;;;;;;;;4984954;28;20058;-56
2023/07/09 15:24:04;;;;;;;383.85;302.58;;;;;;;;;;4985209;28;20208;-58
2023/07/09 15:26:30;;;;;;;286.27;254.88;;;;;;;;;;4983886;28;20045;-56
2023/07/09 15:28:55;;;;;;;378.67;307.77;;;;;;;;;;4986719;28;20391;-58
2023/07/09 15:31:20;;;;;;;553.17;412.40;;;;;;;;;;4983644;28;20557;-56
2023/07/09 15:33:46;;;;;;;328.13;258.07;;;;;;;;;;4986700;28;20115;-56
2023/07/09 15:36:11;;;;;;;388.33;308.83;;;;;;;;;;4991533;28;20053;-56
2023/07/09 15:38:40;;;;;;;329.02;291.42;;;;;;;;;;4984247;28;20280;-57
2023/07/09 15:41:06;;;;;;;227.02;196.63;;;;;;;;;;4985002;28;20535;-56
2023/07/09 15:43:32;;;;;;;483.05;386.55;;;;;;;;;;4987270;28;20403;-55
2023/07/09 15:45:58;;;;;;;362.87;323.20;;;;;;;;;;4989907;28;20484;-57
2023/07/09 15:48:30;;;;;;;442.33;341.48;;;;;;;;;;4985144;28;20947;-56
2023/07/09 15:50:55;;;;;;;526.20;405.30;;;;;;;;;;4989242;28;20021;-55
2023/07/09 15:53:21;;;;;;;352.10;272.27;;;;;;;;;;4985918;28;20053;-56
2023/07/09 15:55:46;;;;;;;277.85;215.60;;;;;;;;;;4987777;28;20054;-54
2023/07/09 15:58:15;;;;;;;427.75;351.20;;;;;;;;;;4986430;28;20026;-54
2023/07/09 16:00:43;;;;;;;451.88;381.15;;;;;;;;;;4986648;28;20045;-54
2023/07/09 16:03:08;;;;;;;494.63;439.25;;;;;;;;;;4987752;28;20180;-55
2023/07/09 16:05:35;;;;;;;351.40;270.88;;;;;;;;;;4984465;28;20456;-55
2023/07/09 16:08:01;;;;;;;521.97;403.05;;;;;;;;;;4985712;28;20221;-54
2023/07/09 16:10:27;;;;;;;352.38;248.70;;;;;;;;;;4982180;28;20213;-55
2023/07/09 16:12:53;;;;;;;353.20;280.05;;;;;;;;;;4984505;28;20050;-55
2023/07/09 16:15:19;;;;;;;420.67;290.05;;;;;;;;;;4982686;28;20117;-57
2023/07/09 16:17:45;;;;;;;457.83;347.90;;;;;;;;;;4984289;28;20031;-54
2023/07/09 16:20:11;;;;;;;384.80;323.85;;;;;;;;;;4981828;28;20022;-55
2023/07/09 16:22:38;;;;;;;312.23;226.50;;;;;;;;;;4981602;28;20022;-55
2023/07/09 16:25:24;;;;;;;414.75;339.17;;;;;;;;;;4983925;28;20478;-58
2023/07/09 16:27:49;;;;;;;371.63;280.88;;;;;;;;;;4984177;28;20053;-56
2023/07/09 16:30:20;;;;;;;607.03;404.83;;;;;;;;;;4981448;28;20030;-56
2023/07/09 16:32:45;;;;;;;372.85;276.95;;;;;;;;;;4991577;28;20057;-54
2023/07/09 16:35:15;;;;;;;485.70;407.08;;;;;;;;;;4983169;28;20117;-55
2023/07/09 16:37:41;;;;;;;779.20;419.42;;;;;;;;;;4982668;28;20459;-59
2023/07/09 16:40:17;;;;;;;362.92;288.15;;;;;;;;;;4991012;28;20029;-57
2023/07/09 16:42:43;;;;;;;326.38;261.73;;;;;;;;;;4984808;28;20026;-54
2023/07/09 16:45:09;;;;;;;362.67;281.83;;;;;;;;;;4982946;28;20449;-54
2023/07/09 16:47:34;;;;;;;369.65;306.60;;;;;;;;;;4983624;28;20038;-54
2023/07/09 16:50:00;;;;;;;357.08;318.35;;;;;;;;;;4983608;28;20645;-57
2023/07/09 16:52:25;;;;;;;442.55;309.10;;;;;;;;;;4982328;28;20031;-57
2023/07/09 16:54:51;;;;;;;902.95;605.65;;;;;;;;;;4983034;28;20379;-55
2023/07/09 16:57:21;;;;;;;389.95;293.65;;;;;;;;;;4980516;28;20503;-55
2023/07/09 16:59:47;;;;;;;281.45;222.43;;;;;;;;;;4984563;28;20080;-57
2023/07/09 17:02:24;;;;;;;241.68;191.25;;;;;;;;;;4984019;28;20052;-59
2023/07/09 17:04:49;;;;;;;334.77;234.07;;;;;;;;;;4984793;28;20125;-57
2023/07/09 17:07:15;;;;;;;346.03;248.17;;;;;;;;;;4984596;28;20157;-58
2023/07/09 17:09:40;;;;;;;334.70;264.30;;;;;;;;;;4982978;28;20420;-59
2023/07/09 17:12:08;;;;;;;392.23;287.60;;;;;;;;;;4983882;28;20363;-56
2023/07/09 17:14:34;;;;;;;386.45;235.45;;;;;;;;;;4983449;28;20437;-55
2023/07/09 17:16:59;;;;;;;586.80;491.87;;;;;;;;;;4982354;28;20535;-57
2023/07/09 17:19:24;;;;;;;382.20;260.20;;;;;;;;;;4982904;28;20709;-58
2023/07/09 17:21:50;;;;;;;393.83;292.53;;;;;;;;;;4982333;28;20757;-57
2023/07/09 17:24:23;;;;;;;451.13;332.50;;;;;;;;;;4983522;28;20633;-58
2023/07/09 17:26:49;;;;;;;493.17;380.27;;;;;;;;;;4984133;28;20153;-57
2023/07/09 17:29:16;;;;;;;416.75;325.92;;;;;;;;;;4984869;28;20447;-56
2023/07/09 17:31:42;;;;;;;326.50;291.23;;;;;;;;;;4985274;28;20030;-59
2023/07/09 17:34:07;;;;;;;426.35;375.90;;;;;;;;;;4983918;28;20033;-55
2023/07/09 17:36:33;;;;;;;692.03;513.83;;;;;;;;;;4983153;28;20045;-56
2023/07/09 17:38:58;;;;;;;336.08;240.45;;;;;;;;;;4986902;28;20018;-57
2023/07/09 17:41:24;;;;;;;421.80;302.48;;;;;;;;;;4985106;28;20180;-56
2023/07/09 17:43:49;;;;;;;324.83;237.23;;;;;;;;;;4983409;28;20445;-58
2023/07/09 17:46:14;;;;;;;205.00;167.33;;;;;;;;;;4986483;28;20382;-58
2023/07/09 17:48:40;;;;;;;406.75;360.90;;;;;;;;;;4982179;28;20026;-57
2023/07/09 17:51:06;;;;;;;360.20;219.73;;;;;;;;;;4980311;28;20038;-56
2023/07/09 17:53:32;;;;;;;342.65;223.90;;;;;;;;;;4984534;28;20030;-57
2023/07/09 17:55:58;;;;;;;311.50;221.30;;;;;;;;;;4983433;28;20034;-58
2023/07/09 17:58:26;;;;;;;322.30;192.55;;;;;;;;;;4985228;28;20022;-57
2023/07/09 18:00:52;;;;;;;318.75;227.40;;;;;;;;;;4983451;28;20042;-56
2023/07/09 18:03:18;;;;;;;354.70;255.32;;;;;;;;;;4986516;28;20049;-55
2023/07/09 18:05:43;;;;;;;358.23;247.80;;;;;;;;;;4984079;28;20469;-55
2023/07/09 18:08:10;;;;;;;294.70;193.37;;;;;;;;;;4984809;28;20033;-55
2023/07/09 18:10:37;;;;;;;368.85;228.20;;;;;;;;;;4980051;28;20843;-56
2023/07/09 18:13:12;;;;;;;367.40;254.07;;;;;;;;;;4985051;28;20093;-55
2023/07/09 18:15:38;;;;;;;342.77;217.85;;;;;;;;;;4983457;28;20404;-57
2023/07/09 18:18:04;;;;;;;246.80;186.25;;;;;;;;;;4985991;28;20029;-54
2023/07/09 18:20:29;;;;;;;389.70;271.38;;;;;;;;;;4985426;28;20018;-57
2023/07/09 18:22:54;;;;;;;269.90;211.20;;;;;;;;;;4987735;28;20045;-56
2023/07/09 18:25:20;;;;;;;272.67;219.93;;;;;;;;;;4987518;28;20034;-54
2023/07/09 18:27:46;;;;;;;300.17;228.52;;;;;;;;;;4988708;28;20456;-53
2023/07/09 18:30:19;;;;;;;373.67;271.52;;;;;;;;;;4986846;28;20153;-54
2023/07/09 18:32:46;;;;;;;397.10;308.73;;;;;;;;;;4985539;28;20034;-57
2023/07/09 18:35:23;;;;;;;300.92;223.23;;;;;;;;;;4986839;28;20030;-55
2023/07/09 18:37:49;;;;;;;295.38;199.25;;;;;;;;;;4985419;28;20606;-56
2023/07/09 18:40:14;;;;;;;308.73;229.98;;;;;;;;;;4987691;28;20034;-58
2023/07/09 18:42:40;;;;;;;395.93;279.77;;;;;;;;;;4987683;28;21557;-58
2023/07/09 18:45:05;;;;;;;282.97;194.37;;;;;;;;;;4987109;28;20028;-58
2023/07/09 18:47:30;;;;;;;371.45;226.98;;;;;;;;;;4985092;28;20136;-55
2023/07/09 18:49:56;;;;;;;339.50;241.57;;;;;;;;;;4986899;28;20104;-56
2023/07/09 18:52:22;;;;;;;327.67;228.37;;;;;;;;;;4984297;28;20725;-56
2023/07/09 18:54:49;;;;;;;267.48;205.38;;;;;;;;;;4984274;28;20732;-57
2023/07/09 18:57:14;;;;;;;217.35;171.18;;;;;;;;;;4986830;28;20116;-57
2023/07/09 18:59:40;;;;;;;313.00;195.50;;;;;;;;;;4986677;28;20138;-57
2023/07/09 19:02:24;;;;;;;253.55;184.00;;;;;;;;;;4989533;28;20687;-58
2023/07/09 19:04:50;;;;;;;299.38;209.70;;;;;;;;;;4988994;28;20022;-57
2023/07/09 19:07:17;;;;;;;291.70;208.50;;;;;;;;;;4986981;28;20034;-57
2023/07/09 19:09:43;;;;;;;238.35;166.60;;;;;;;;;;4985699;28;20079;-57
2023/07/09 19:12:09;;;;;;;310.42;213.50;;;;;;;;;;4985930;28;20042;-55
2023/07/09 19:14:35;;;;;;;302.13;183.80;;;;;;;;;;4985456;28;20018;-56
2023/07/09 19:17:02;;;;;;;253.20;185.52;;;;;;;;;;4985556;28;20038;-55
2023/07/09 19:19:28;;;;;;;331.67;224.82;;;;;;;;;;4986174;28;20034;-56
2023/07/09 19:21:55;;;;;;;246.70;189.02;;;;;;;;;;4984294;28;20034;-56
2023/07/09 19:24:27;;;;;;;274.70;216.30;;;;;;;;;;4983831;28;20698;-56
2023/07/09 19:26:53;;;;;;;221.88;176.38;;;;;;;;;;4985148;28;20740;-57
2023/07/09 19:29:19;;;;;;;237.25;211.52;;;;;;;;;;4988450;28;20037;-53
2023/07/09 19:31:46;;;;;;;214.70;191.30;;;;;;;;;;4985362;28;20052;-55
2023/07/09 19:34:16;;;;;;;223.27;182.57;;;;;;;;;;4985428;28;20121;-57
2023/07/09 19:36:42;;;;;;;195.20;167.17;;;;;;;;;;4984405;28;20109;-57
2023/07/09 19:39:19;;;;;;;206.80;183.98;;;;;;;;;;4986521;28;20117;-57
2023/07/09 19:41:44;;;;;;;251.13;190.38;;;;;;;;;;4984394;28;21140;-55
2023/07/09 19:44:09;;;;;;;228.83;204.73;;;;;;;;;;4989018;28;20113;-57
2023/07/09 19:46:34;;;;;;;358.80;283.83;;;;;;;;;;4983295;28;20073;-58
2023/07/09 19:49:00;;;;;;;247.23;202.90;;;;;;;;;;4989826;28;20105;-58
2023/07/09 19:51:25;;;;;;;250.02;201.55;;;;;;;;;;4984380;28;20116;-54
2023/07/09 19:53:51;;;;;;;322.92;281.30;;;;;;;;;;4987086;28;20033;-56
2023/07/09 19:56:16;;;;;;;260.88;205.43;;;;;;;;;;4988352;28;20039;-56
2023/07/09 19:58:41;;;;;;;277.77;222.50;;;;;;;;;;4984510;28;20478;-55
2023/07/09 20:01:12;;;;;;;286.17;256.25;;;;;;;;;;4986095;28;20805;-56
2023/07/09 20:03:38;;;;;;;251.02;224.07;;;;;;;;;;4987922;28;20088;-57
2023/07/09 20:06:05;;;;;;;294.17;260.10;;;;;;;;;;4986384;28;20495;-57
2023/07/09 20:08:30;;;;;;;310.55;245.43;;;;;;;;;;4985469;28;20026;-58
2023/07/09 20:10:57;;;;;;;293.73;255.40;;;;;;;;;;4984553;28;20096;-58
2023/07/09 20:13:24;;;;;;;317.95;281.42;;;;;;;;;;4984621;28;20109;-58
2023/07/09 20:15:49;;;;;;;296.83;248.48;;;;;;;;;;4982396;28;20452;-56
2023/07/09 20:18:15;;;;;;;324.67;289.95;;;;;;;;;;4985872;28;20638;-57
2023/07/09 20:20:41;;;;;;;327.30;262.88;;;;;;;;;;4983473;28;20682;-57
2023/07/09 20:23:13;;;;;;;305.25;268.52;;;;;;;;;;4985151;28;20035;-57
2023/07/09 20:25:38;;;;;;;322.77;275.67;;;;;;;;;;4983807;28;20053;-58
2023/07/09 20:28:10;;;;;;;276.33;247.43;;;;;;;;;;4985969;28;20399;-55
2023/07/09 20:30:35;;;;;;;318.75;264.75;;;;;;;;;;4984297;28;20365;-57
2023/07/09 20:33:02;;;;;;;270.52;241.23;;;;;;;;;;4984514;28;20014;-55
2023/07/09 20:35:28;;;;;;;287.88;252.88;;;;;;;;;;4982735;28;20207;-54
2023/07/09 20:37:53;;;;;;;288.25;259.08;;;;;;;;;;4984206;28;20025;-55
2023/07/09 20:40:20;;;;;;;271.73;238.00;;;;;;;;;;4984043;28;20061;-56
2023/07/09 20:42:46;;;;;;;341.90;251.48;;;;;;;;;;4982902;28;20029;-58
2023/07/09 20:45:19;;;;;;;285.15;255.50;;;;;;;;;;4985168;28;20033;-57
2023/07/09 20:47:47;;;;;;;334.88;246.27;;;;;;;;;;4984894;28;20054;-59
2023/07/09 20:50:13;;;;;;;309.73;258.40;;;;;;;;;;4984177;28;20030;-59
2023/07/09 20:52:39;;;;;;;339.75;251.52;;;;;;;;;;4983832;28;20034;-58
2023/07/09 20:55:05;;;;;;;299.92;243.25;;;;;;;;;;4985933;28;20030;-61
2023/07/09 20:57:31;;;;;;;285.73;245.60;;;;;;;;;;4983628;28;20637;-61
2023/07/09 20:59:57;;;;;;;271.70;228.20;;;;;;;;;;4986173;28;20026;-60
2023/07/09 21:02:23;;;;;;;286.15;222.90;;;;;;;;;;4986005;28;20480;-59
2023/07/09 21:04:49;;;;;;;346.48;280.55;;;;;;;;;;4985369;28;20116;-59
2023/07/09 21:07:14;;;;;;;301.90;247.32;;;;;;;;;;4981728;28;20451;-57
2023/07/09 21:09:39;;;;;;;383.40;281.03;;;;;;;;;;4986580;28;20500;-57
2023/07/09 21:12:08;;;;;;;305.00;263.90;;;;;;;;;;4984122;28;20281;-55
2023/07/09 21:14:34;;;;;;;306.95;250.05;;;;;;;;;;4984994;28;20248;-60
2023/07/09 21:16:59;;;;;;;457.47;410.80;;;;;;;;;;4984670;28;20030;-61
2023/07/09 21:19:32;;;;;;;299.98;245.45;;;;;;;;;;4984336;28;20309;-56
2023/07/09 21:21:58;;;;;;;296.80;248.40;;;;;;;;;;4982910;28;20084;-59
2023/07/09 21:24:35;;;;;;;297.35;253.93;;;;;;;;;;4985360;28;20042;-58
2023/07/09 21:27:02;;;;;;;457.05;404.95;;;;;;;;;;4984096;28;20065;-58
2023/07/09 21:29:28;;;;;;;316.92;245.80;;;;;;;;;;4986208;28;20095;-59
2023/07/09 21:31:54;;;;;;;276.23;224.57;;;;;;;;;;4984404;28;20151;-60
2023/07/09 21:34:21;;;;;;;266.02;223.57;;;;;;;;;;4985051;28;20479;-59
